Branon, North Carolina
Current Conditions -  °F | °C
As of 3:54 PM on Friday 28 Nov 2014 (Local Time) from KINT Reporting Station
Clear Clear  
Wind Chill: 39°   Ceiling: Unl
Heat Index: 42°   Visibility: 10mi
Dew Point: 17°   Wind: 5mph
Humidity: 37%   Direction: 330°NNW
Pressure: 30.28"   Gusts: NA
Location:  36.1267°N, 80.6582°W
Report Text: KINT 282054Z 33004KT 10SM CLR 06/M08 A3028 RMK AO2 SLP257 T00561083 56009
Loading
Personal Weather Stations






























Interactive Weather Map New forecast layout! Learn more

10-Day Weather Forecast

Advertisements
Track Severe Weather on mobile